createdAt,value
2023-10-15T00:00:28.932Z,75.20
2023-10-15T00:02:57.102Z,75.40
2023-10-15T00:05:28.845Z,75.30
2023-10-15T00:07:56.713Z,75.30
2023-10-15T00:10:28.052Z,75.50
2023-10-15T00:12:56.370Z,75.70
2023-10-15T00:15:25.353Z,75.80
2023-10-15T00:18:00.402Z,75.20
2023-10-15T00:20:32.808Z,75.30
2023-10-15T00:23:06.430Z,75.80
2023-10-15T00:25:39.914Z,75.50
2023-10-15T00:28:12.759Z,75.20
2023-10-15T00:30:41.738Z,75.30
2023-10-15T00:33:19.541Z,75.30
2023-10-15T00:35:47.548Z,75.30
2023-10-15T00:38:18.436Z,75.30
2023-10-15T00:40:47.570Z,75.40
2023-10-15T00:43:19.142Z,75.60
2023-10-15T00:45:47.948Z,75.30
2023-10-15T00:48:35.130Z,75.50
2023-10-15T00:51:09.865Z,75.50
2023-10-15T00:53:43.052Z,75.90
2023-10-15T00:56:12.183Z,75.70
2023-10-15T00:58:44.936Z,75.60
2023-10-15T01:01:18.235Z,75.30
2023-10-15T01:03:55.116Z,75.70
2023-10-15T01:06:36.181Z,75.40
2023-10-15T01:09:10.823Z,75.60
2023-10-15T01:11:39.590Z,75.20
2023-10-15T01:14:11.589Z,75.20
2023-10-15T01:16:40.782Z,74.80
2023-10-15T01:19:19.841Z,75.10
2023-10-15T01:21:51.611Z,75.00
2023-10-15T01:24:21.226Z,75.10
2023-10-15T01:27:01.353Z,75.20
2023-10-15T01:29:29.171Z,75.40
2023-10-15T01:32:00.490Z,75.30
2023-10-15T01:34:28.456Z,75.00
2023-10-15T01:36:58.358Z,75.20
2023-10-15T01:39:41.401Z,75.20
2023-10-15T01:42:08.557Z,75.20
2023-10-15T01:44:48.781Z,75.00
2023-10-15T01:47:15.759Z,75.20
2023-10-15T01:49:43.071Z,74.90
2023-10-15T01:52:28.727Z,75.10
2023-10-15T01:54:55.604Z,75.20
2023-10-15T01:57:23.550Z,75.20
2023-10-15T01:59:56.983Z,75.20
2023-10-15T02:02:25.594Z,75.10
2023-10-15T02:04:58.459Z,75.30
2023-10-15T02:07:25.934Z,75.10
2023-10-15T02:09:52.764Z,75.30
2023-10-15T02:12:19.855Z,75.50
2023-10-15T02:14:49.190Z,75.60
2023-10-15T02:17:20.335Z,75.50
2023-10-15T02:19:49.433Z,75.50
2023-10-15T02:22:17.088Z,75.50
2023-10-15T02:24:49.117Z,75.50
2023-10-15T02:27:25.003Z,75.30
2023-10-15T02:29:52.860Z,75.10
2023-10-15T02:32:23.147Z,75.30
2023-10-15T02:34:53.513Z,75.50
2023-10-15T02:37:25.105Z,75.40
2023-10-15T02:39:52.174Z,75.40
2023-10-15T02:42:20.056Z,75.50
2023-10-15T02:44:53.737Z,75.50
2023-10-15T02:47:21.182Z,75.60
2023-10-15T02:49:53.745Z,75.90
2023-10-15T02:52:21.664Z,75.80
2023-10-15T02:54:48.641Z,75.80
2023-10-15T02:57:16.750Z,75.70
2023-10-15T02:59:54.174Z,75.90
2023-10-15T03:02:21.719Z,75.80
2023-10-15T03:04:50.988Z,75.90
2023-10-15T03:07:21.116Z,75.80
2023-10-15T03:09:53.073Z,75.90
2023-10-15T03:12:20.146Z,75.80
2023-10-15T03:14:47.136Z,75.70
2023-10-15T03:17:25.710Z,75.60
2023-10-15T03:19:56.398Z,75.40
2023-10-15T03:22:26.538Z,75.60
2023-10-15T03:24:54.567Z,75.40
2023-10-15T03:27:27.553Z,75.40
2023-10-15T03:29:57.938Z,75.60
2023-10-15T03:32:38.745Z,75.70
2023-10-15T03:35:18.584Z,76.00
2023-10-15T03:37:59.888Z,75.90
2023-10-15T03:40:48.253Z,75.90
2023-10-15T03:43:21.735Z,75.90
2023-10-15T03:45:55.065Z,75.90
2023-10-15T03:48:29.337Z,76.10
2023-10-15T03:50:59.865Z,75.80
2023-10-15T03:53:29.664Z,76.10
2023-10-15T03:56:02.722Z,76.10
2023-10-15T03:58:30.142Z,76.20
2023-10-15T04:01:09.745Z,76.40
2023-10-15T04:03:37.014Z,76.60
2023-10-15T04:06:06.740Z,76.30
2023-10-15T04:08:33.775Z,76.70
2023-10-15T04:11:01.652Z,76.40
2023-10-15T04:13:28.759Z,76.80
2023-10-15T04:15:56.770Z,76.90
2023-10-15T04:18:24.559Z,76.90
2023-10-15T04:20:53.820Z,76.70
2023-10-15T04:23:32.944Z,76.80
2023-10-15T04:26:02.244Z,76.90
2023-10-15T04:28:30.620Z,77.00
2023-10-15T04:30:58.828Z,76.80
2023-10-15T04:33:29.101Z,76.70
2023-10-15T04:35:58.826Z,77.00
2023-10-15T04:38:31.906Z,77.00
2023-10-15T04:40:58.835Z,76.40
2023-10-15T04:43:26.624Z,76.70
2023-10-15T04:45:57.656Z,76.60
2023-10-15T04:48:28.859Z,76.60
2023-10-15T04:51:03.218Z,76.60
2023-10-15T04:53:32.168Z,76.30
2023-10-15T04:56:02.318Z,76.10
2023-10-15T04:58:29.415Z,76.10
2023-10-15T05:00:59.445Z,76.00
2023-10-15T05:03:26.813Z,76.30
2023-10-15T05:05:56.661Z,76.20
2023-10-15T05:08:25.933Z,76.10
2023-10-15T05:10:53.169Z,76.40
2023-10-15T05:13:21.042Z,76.20
2023-10-15T05:15:48.945Z,76.30
2023-10-15T05:18:16.902Z,76.30
2023-10-15T05:20:51.801Z,76.30
2023-10-15T05:23:20.302Z,76.00
2023-10-15T05:25:50.992Z,76.50
2023-10-15T05:28:18.385Z,76.50
2023-10-15T05:30:45.409Z,76.10
2023-10-15T05:33:12.580Z,75.90
2023-10-15T05:35:44.270Z,75.90
2023-10-15T05:38:11.327Z,75.70
2023-10-15T05:40:39.664Z,77.40
2023-10-15T05:43:07.199Z,77.30
2023-10-15T05:45:34.317Z,76.10
2023-10-15T05:48:02.098Z,77.10
2023-10-15T05:50:29.492Z,77.20
2023-10-15T05:52:56.386Z,76.10
2023-10-15T05:55:23.326Z,77.10
2023-10-15T05:57:50.174Z,75.80
2023-10-15T06:00:20.724Z,76.00
2023-10-15T06:02:53.683Z,75.90
2023-10-15T06:05:20.758Z,75.90
2023-10-15T06:07:47.705Z,76.10
2023-10-15T06:10:14.736Z,75.70
2023-10-15T06:12:42.841Z,75.60
2023-10-15T06:15:10.949Z,75.60
2023-10-15T06:17:38.007Z,75.30
2023-10-15T06:20:14.518Z,75.20
2023-10-15T06:22:50.727Z,75.20
2023-10-15T06:25:19.131Z,75.40
2023-10-15T06:27:46.554Z,74.70
2023-10-15T06:30:16.560Z,74.80
2023-10-15T06:32:49.512Z,74.50
2023-10-15T06:35:21.348Z,74.40
2023-10-15T06:37:49.502Z,74.00
2023-10-15T06:40:22.875Z,74.20
2023-10-15T06:42:52.685Z,74.40
2023-10-15T06:45:20.869Z,73.50
2023-10-15T06:47:49.133Z,73.60
2023-10-15T06:50:16.455Z,73.50
2023-10-15T06:52:44.394Z,73.10
2023-10-15T06:55:16.062Z,72.70
2023-10-15T06:57:43.664Z,72.50
2023-10-15T07:00:13.440Z,72.50
2023-10-15T07:02:40.448Z,72.20
2023-10-15T07:05:08.772Z,72.00
2023-10-15T07:07:35.777Z,71.90
2023-10-15T07:10:06.203Z,71.70
2023-10-15T07:12:33.519Z,71.90
2023-10-15T07:15:00.933Z,71.30
2023-10-15T07:17:27.823Z,70.70
2023-10-15T07:19:54.870Z,70.80
2023-10-15T07:22:22.114Z,69.70
2023-10-15T07:24:49.044Z,69.80
2023-10-15T07:27:16.403Z,69.50
2023-10-15T07:29:43.317Z,69.30
2023-10-15T07:32:10.214Z,69.40
2023-10-15T07:34:37.117Z,68.90
2023-10-15T07:37:04.058Z,68.90
2023-10-15T07:39:32.830Z,68.60
2023-10-15T07:41:59.965Z,68.00
2023-10-15T07:44:27.085Z,67.40
2023-10-15T07:46:54.588Z,66.80
2023-10-15T07:49:25.908Z,66.00
2023-10-15T07:51:52.790Z,64.40
2023-10-15T07:54:19.597Z,64.00
2023-10-15T07:56:46.466Z,63.50
2023-10-15T07:59:13.378Z,63.40
2023-10-15T08:01:40.495Z,62.60
2023-10-15T08:04:10.888Z,62.50
2023-10-15T08:06:38.339Z,62.00
2023-10-15T08:09:05.593Z,61.80
2023-10-15T08:11:32.796Z,61.50
2023-10-15T08:14:00.840Z,61.10
2023-10-15T08:16:27.877Z,60.60
2023-10-15T08:18:54.740Z,60.00
2023-10-15T08:21:22.910Z,60.00
2023-10-15T08:23:49.800Z,59.50
2023-10-15T08:26:16.759Z,59.60
2023-10-15T08:28:43.773Z,59.30
2023-10-15T08:31:10.805Z,58.60
2023-10-15T08:33:37.702Z,58.80
2023-10-15T08:36:04.801Z,58.60
2023-10-15T08:38:31.877Z,58.20
2023-10-15T08:41:00.122Z,58.30
2023-10-15T08:43:35.782Z,58.30
2023-10-15T08:46:10.679Z,59.90
2023-10-15T08:48:41.687Z,59.90
2023-10-15T08:51:15.028Z,60.70
2023-10-15T08:53:42.868Z,61.00
2023-10-15T08:56:10.990Z,62.60
2023-10-15T08:58:41.457Z,63.10
2023-10-15T09:01:08.713Z,64.00
2023-10-15T09:03:39.584Z,64.20
2023-10-15T09:06:06.805Z,65.70
2023-10-15T09:08:36.600Z,66.20
2023-10-15T09:11:05.332Z,66.60
2023-10-15T09:13:37.944Z,65.70
2023-10-15T09:16:07.478Z,66.20
2023-10-15T09:18:37.527Z,66.70
2023-10-15T09:21:05.453Z,67.50
2023-10-15T09:23:36.554Z,68.20
2023-10-15T09:26:07.597Z,67.90
2023-10-15T09:28:38.269Z,66.10
2023-10-15T09:31:12.752Z,66.10
2023-10-15T09:33:40.673Z,65.70
2023-10-15T09:36:08.081Z,64.40
2023-10-15T09:38:36.132Z,63.90
2023-10-15T09:41:03.761Z,62.80
2023-10-15T09:43:37.292Z,62.70
2023-10-15T09:46:07.185Z,61.30
2023-10-15T09:48:38.798Z,60.90
2023-10-15T09:51:06.406Z,60.70
2023-10-15T09:53:35.860Z,61.10
2023-10-15T09:56:10.209Z,61.60
2023-10-15T09:58:38.512Z,60.00
2023-10-15T10:01:20.951Z,59.80
2023-10-15T10:03:50.816Z,59.50
2023-10-15T10:06:33.117Z,60.60
2023-10-15T10:09:38.859Z,60.40
2023-10-15T10:12:19.981Z,60.90
2023-10-15T10:14:52.470Z,60.50
2023-10-15T10:17:22.147Z,60.70
2023-10-15T10:19:53.643Z,60.10
2023-10-15T10:22:30.427Z,60.40
2023-10-15T10:25:00.556Z,60.20
2023-10-15T10:27:27.866Z,58.60
2023-10-15T10:29:55.601Z,57.60
2023-10-15T10:32:22.782Z,56.50
2023-10-15T10:35:25.203Z,56.00
2023-10-15T10:38:19.266Z,55.70
2023-10-15T10:40:51.172Z,54.50
2023-10-15T10:43:19.270Z,54.00
2023-10-15T10:45:54.704Z,54.20
2023-10-15T10:48:29.876Z,54.40
2023-10-15T10:51:20.183Z,54.20
2023-10-15T10:53:59.131Z,54.50
2023-10-15T10:56:45.931Z,54.30
2023-10-15T10:59:18.198Z,54.00
2023-10-15T11:01:47.076Z,52.70
2023-10-15T11:04:17.536Z,51.70
2023-10-15T11:06:49.956Z,51.30
2023-10-15T11:09:17.263Z,51.30
2023-10-15T11:11:48.868Z,51.00
2023-10-15T11:14:16.788Z,51.50
2023-10-15T11:16:44.608Z,51.20
2023-10-15T11:19:25.662Z,50.50
2023-10-15T11:21:54.228Z,50.50
2023-10-15T11:24:26.241Z,49.90
2023-10-15T11:26:55.976Z,49.40
2023-10-15T11:29:24.492Z,49.50
2023-10-15T11:31:55.228Z,49.20
2023-10-15T11:34:25.559Z,48.90
2023-10-15T11:36:57.272Z,49.10
2023-10-15T11:39:39.102Z,49.00
2023-10-15T11:42:08.666Z,47.60
2023-10-15T11:44:38.614Z,48.60
2023-10-15T11:47:26.194Z,47.40
2023-10-15T11:49:55.328Z,46.50
2023-10-15T11:52:23.987Z,45.70
2023-10-15T11:54:52.340Z,45.20
2023-10-15T11:57:28.278Z,45.70
2023-10-15T11:59:58.116Z,45.50
2023-10-15T12:02:32.122Z,44.60
2023-10-15T12:05:02.929Z,44.50
2023-10-15T12:07:30.862Z,44.00
2023-10-15T12:09:59.131Z,44.20
2023-10-15T12:12:27.249Z,44.40
2023-10-15T12:14:54.172Z,44.80
2023-10-15T12:17:22.134Z,44.30
2023-10-15T12:19:54.717Z,44.20
2023-10-15T12:22:30.780Z,44.70
2023-10-15T12:24:57.621Z,43.80
2023-10-15T12:27:26.526Z,45.00
2023-10-15T12:29:56.157Z,44.40
2023-10-15T12:32:31.645Z,44.30
2023-10-15T12:35:12.869Z,43.80
2023-10-15T12:37:40.129Z,44.10
2023-10-15T12:40:12.713Z,44.20
2023-10-15T12:42:41.197Z,44.30
2023-10-15T12:45:11.483Z,43.70
2023-10-15T12:47:41.052Z,43.90
2023-10-15T12:50:16.372Z,43.90
2023-10-15T12:52:48.887Z,43.50
2023-10-15T12:55:16.789Z,43.50
2023-10-15T12:57:43.766Z,43.80
2023-10-15T13:00:20.909Z,43.60
2023-10-15T13:02:52.367Z,43.50
2023-10-15T13:05:21.215Z,44.00
2023-10-15T13:07:48.854Z,44.40
2023-10-15T13:10:18.906Z,44.70
2023-10-15T13:12:49.619Z,45.20
2023-10-15T13:15:19.216Z,45.50
2023-10-15T13:17:46.817Z,45.70
2023-10-15T13:20:15.363Z,46.50
2023-10-15T13:22:43.484Z,46.10
2023-10-15T13:25:11.570Z,46.60
2023-10-15T13:27:41.973Z,47.10
2023-10-15T13:30:16.599Z,46.90
2023-10-15T13:32:44.862Z,47.20
2023-10-15T13:35:14.991Z,47.30
2023-10-15T13:37:45.552Z,47.60
2023-10-15T13:40:13.658Z,47.20
2023-10-15T13:42:43.510Z,47.00
2023-10-15T13:45:12.059Z,46.00
2023-10-15T13:47:39.624Z,46.30
2023-10-15T13:50:08.021Z,45.90
2023-10-15T13:52:36.583Z,45.90
2023-10-15T13:55:05.586Z,46.10
2023-10-15T13:57:32.857Z,44.80
2023-10-15T13:59:59.986Z,44.40
2023-10-15T14:02:26.983Z,43.50
2023-10-15T14:04:54.682Z,42.80
2023-10-15T14:07:22.076Z,43.70
2023-10-15T14:09:51.539Z,43.80
2023-10-15T14:12:18.366Z,44.10
2023-10-15T14:14:45.116Z,44.60
2023-10-15T14:17:12.081Z,44.40
2023-10-15T14:19:39.766Z,44.50
2023-10-15T14:22:06.588Z,44.20
2023-10-15T14:24:34.427Z,44.20
2023-10-15T14:27:01.281Z,44.70
2023-10-15T14:29:28.041Z,44.30
2023-10-15T14:31:54.978Z,44.90
2023-10-15T14:34:21.974Z,44.40
2023-10-15T14:36:49.819Z,44.70
2023-10-15T14:39:23.771Z,43.80
2023-10-15T14:41:50.669Z,43.50
2023-10-15T14:44:17.616Z,44.10
2023-10-15T14:46:44.594Z,43.80
2023-10-15T14:49:11.392Z,43.70
2023-10-15T14:51:38.190Z,43.60
2023-10-15T14:54:06.258Z,43.50
2023-10-15T14:56:33.855Z,44.20
2023-10-15T14:59:01.616Z,43.70
2023-10-15T15:01:28.564Z,43.10
2023-10-15T15:03:56.788Z,43.20
2023-10-15T15:06:23.814Z,43.00
2023-10-15T15:08:50.641Z,43.20
2023-10-15T15:11:17.656Z,42.70
2023-10-15T15:13:44.512Z,43.00
2023-10-15T15:16:11.373Z,43.20
2023-10-15T15:18:38.202Z,43.20
2023-10-15T15:21:09.310Z,43.40
2023-10-15T15:23:36.258Z,43.20
2023-10-15T15:26:06.314Z,43.70
2023-10-15T15:28:34.406Z,44.40
2023-10-15T15:31:01.827Z,44.70
2023-10-15T15:33:29.243Z,44.90
2023-10-15T15:35:56.898Z,45.20
2023-10-15T15:38:23.967Z,45.40
2023-10-15T15:40:53.857Z,45.70
2023-10-15T15:43:25.074Z,45.80
2023-10-15T15:45:53.088Z,46.60
2023-10-15T15:48:21.066Z,46.70
2023-10-15T15:50:48.150Z,46.60
2023-10-15T15:53:15.084Z,47.60
2023-10-15T15:55:42.513Z,47.70
2023-10-15T15:58:12.233Z,47.40
2023-10-15T16:00:40.370Z,48.10
2023-10-15T16:03:07.457Z,48.40
2023-10-15T16:05:35.550Z,48.40
2023-10-15T16:08:03.831Z,49.30
2023-10-15T16:10:31.275Z,50.30
2023-10-15T16:12:59.608Z,50.50
2023-10-15T16:15:27.539Z,51.00
2023-10-15T16:17:54.947Z,51.30
2023-10-15T16:20:22.503Z,51.00
2023-10-15T16:22:50.787Z,51.30
2023-10-15T16:25:23.129Z,51.70
2023-10-15T16:27:49.994Z,51.40
2023-10-15T16:30:17.023Z,51.80
2023-10-15T16:32:44.426Z,52.10
2023-10-15T16:35:14.498Z,52.80
2023-10-15T16:37:41.378Z,52.70
2023-10-15T16:40:14.619Z,53.30
2023-10-15T16:42:42.739Z,53.60
2023-10-15T16:45:09.971Z,54.10
2023-10-15T16:47:39.158Z,53.90
2023-10-15T16:50:07.160Z,54.30
2023-10-15T16:52:34.039Z,55.00
2023-10-15T16:55:00.927Z,54.00
2023-10-15T16:57:27.763Z,55.30
2023-10-15T16:59:58.057Z,56.60
2023-10-15T17:02:26.076Z,56.10
2023-10-15T17:04:57.854Z,56.00
2023-10-15T17:07:31.341Z,56.10
2023-10-15T17:09:58.680Z,56.30
2023-10-15T17:12:25.675Z,56.50
2023-10-15T17:14:52.484Z,57.10
2023-10-15T17:17:19.312Z,56.20
2023-10-15T17:19:48.645Z,57.40
2023-10-15T17:22:15.559Z,57.10
2023-10-15T17:24:42.861Z,58.00
2023-10-15T17:27:10.327Z,58.00
2023-10-15T17:29:45.053Z,57.90
2023-10-15T17:32:17.328Z,58.30
2023-10-15T17:34:44.423Z,58.60
2023-10-15T17:37:19.462Z,58.70
2023-10-15T17:39:47.106Z,58.70
2023-10-15T17:42:14.409Z,58.70
2023-10-15T17:44:43.222Z,58.70
2023-10-15T17:47:10.576Z,59.10
2023-10-15T17:49:37.437Z,59.10
2023-10-15T17:52:04.416Z,59.00
2023-10-15T17:54:31.571Z,58.80
2023-10-15T17:57:01.215Z,58.70
2023-10-15T17:59:28.184Z,58.80
2023-10-15T18:01:55.551Z,59.00
2023-10-15T18:04:22.662Z,59.20
2023-10-15T18:06:51.364Z,59.40
2023-10-15T18:09:19.196Z,58.60
2023-10-15T18:11:46.491Z,58.70
2023-10-15T18:14:13.479Z,58.60
2023-10-15T18:16:40.898Z,58.90
2023-10-15T18:19:08.881Z,59.20
2023-10-15T18:21:35.870Z,59.20
2023-10-15T18:24:02.776Z,59.30
2023-10-15T18:26:29.655Z,59.40
2023-10-15T18:28:56.656Z,59.80
2023-10-15T18:31:23.614Z,59.60
2023-10-15T18:33:50.501Z,59.30
2023-10-15T18:36:17.567Z,59.40
2023-10-15T18:38:44.585Z,60.00
2023-10-15T18:41:12.230Z,60.40
2023-10-15T18:43:39.944Z,60.40
2023-10-15T18:46:08.000Z,60.00
2023-10-15T18:48:36.477Z,60.60
2023-10-15T18:51:21.325Z,61.00
2023-10-15T18:53:51.275Z,60.90
2023-10-15T18:56:18.128Z,61.10
2023-10-15T18:58:45.006Z,61.80
2023-10-15T19:01:12.262Z,62.20
2023-10-15T19:03:39.584Z,62.40
2023-10-15T19:06:07.897Z,62.20
2023-10-15T19:08:34.978Z,61.90
2023-10-15T19:11:02.062Z,62.00
2023-10-15T19:13:29.448Z,62.30
2023-10-15T19:16:00.279Z,61.90
2023-10-15T19:18:29.637Z,61.90
2023-10-15T19:20:56.592Z,61.80
2023-10-15T19:23:23.614Z,61.90
2023-10-15T19:25:50.523Z,63.20
2023-10-15T19:28:18.345Z,63.20
2023-10-15T19:30:45.240Z,62.70
2023-10-15T19:33:12.135Z,63.20
2023-10-15T19:35:39.855Z,63.00
2023-10-15T19:38:06.933Z,62.20
2023-10-15T19:40:35.187Z,62.70
2023-10-15T19:43:02.392Z,61.30
2023-10-15T19:45:29.795Z,60.50
2023-10-15T19:47:58.717Z,60.90
2023-10-15T19:50:27.175Z,60.20
2023-10-15T19:52:54.016Z,60.80
2023-10-15T19:55:20.962Z,61.10
2023-10-15T19:57:48.161Z,61.40
2023-10-15T20:00:21.165Z,61.70
2023-10-15T20:02:48.538Z,62.30
2023-10-15T20:05:16.065Z,62.20
2023-10-15T20:07:43.197Z,62.40
2023-10-15T20:10:11.311Z,62.60
2023-10-15T20:12:48.014Z,62.70
2023-10-15T20:15:20.697Z,62.50
2023-10-15T20:17:48.651Z,63.00
2023-10-15T20:20:18.771Z,63.00
2023-10-15T20:22:47.326Z,63.40
2023-10-15T20:25:16.320Z,63.40
2023-10-15T20:27:44.081Z,63.40
2023-10-15T20:30:17.118Z,63.80
2023-10-15T20:32:55.324Z,64.10
2023-10-15T20:35:24.538Z,64.10
2023-10-15T20:37:56.028Z,64.20
2023-10-15T20:40:26.782Z,64.10
2023-10-15T20:42:54.933Z,64.20
2023-10-15T20:45:25.269Z,64.10
2023-10-15T20:47:52.807Z,64.30
2023-10-15T20:50:20.824Z,64.10
2023-10-15T20:52:48.905Z,64.00
2023-10-15T20:55:16.525Z,63.60
2023-10-15T20:57:44.359Z,63.50
2023-10-15T21:00:13.917Z,64.00
2023-10-15T21:02:42.992Z,64.00
2023-10-15T21:05:11.825Z,64.10
2023-10-15T21:07:40.490Z,63.80
2023-10-15T21:10:10.959Z,64.10
2023-10-15T21:12:38.476Z,64.10
2023-10-15T21:15:07.496Z,64.30
2023-10-15T21:17:36.462Z,64.20
2023-10-15T21:20:11.427Z,64.40
2023-10-15T21:22:40.677Z,64.40
2023-10-15T21:25:13.481Z,64.40
2023-10-15T21:27:41.350Z,64.20
2023-10-15T21:30:10.067Z,64.30
2023-10-15T21:32:37.123Z,64.50
2023-10-15T21:35:06.665Z,64.40
2023-10-15T21:37:33.556Z,64.70
2023-10-15T21:40:00.540Z,64.70
2023-10-15T21:42:27.462Z,64.70
2023-10-15T21:44:54.317Z,64.80
2023-10-15T21:47:21.158Z,64.40
2023-10-15T21:49:48.005Z,64.90
2023-10-15T21:52:14.874Z,65.30
2023-10-15T21:54:41.851Z,65.30
2023-10-15T21:57:09.449Z,65.60
2023-10-15T21:59:37.081Z,65.20
2023-10-15T22:02:07.045Z,65.00
2023-10-15T22:04:34.469Z,65.00
2023-10-15T22:07:02.111Z,65.20
2023-10-15T22:09:30.095Z,65.30
2023-10-15T22:11:58.097Z,65.60
2023-10-15T22:14:27.143Z,65.40
2023-10-15T22:16:57.826Z,65.30
2023-10-15T22:19:28.246Z,65.30
2023-10-15T22:21:57.704Z,65.30
2023-10-15T22:24:25.032Z,65.30
2023-10-15T22:26:53.563Z,65.30
2023-10-15T22:29:40.174Z,65.40
2023-10-15T22:32:08.430Z,65.50
2023-10-15T22:34:37.531Z,65.60
2023-10-15T22:37:07.170Z,66.00
2023-10-15T22:39:37.966Z,65.90
2023-10-15T22:42:12.095Z,66.00
2023-10-15T22:44:46.000Z,66.20
2023-10-15T22:47:14.398Z,66.10
2023-10-15T22:49:41.888Z,66.50
2023-10-15T22:52:09.139Z,65.90
2023-10-15T22:54:36.136Z,66.00
2023-10-15T22:57:04.546Z,65.90
2023-10-15T22:59:32.057Z,65.50
2023-10-15T23:01:58.999Z,65.10
2023-10-15T23:04:27.639Z,65.00
2023-10-15T23:06:55.018Z,64.70
2023-10-15T23:09:22.933Z,64.10
2023-10-15T23:11:50.086Z,64.40
2023-10-15T23:14:17.332Z,64.30
2023-10-15T23:16:46.208Z,64.00
2023-10-15T23:19:16.605Z,63.90
2023-10-15T23:21:56.383Z,63.80
2023-10-15T23:24:26.760Z,64.10
2023-10-15T23:26:54.118Z,63.50
2023-10-15T23:29:25.631Z,63.40
2023-10-15T23:31:52.689Z,63.10
2023-10-15T23:34:19.540Z,63.00
2023-10-15T23:36:46.483Z,63.10
2023-10-15T23:39:17.578Z,62.80
2023-10-15T23:41:44.893Z,62.50
2023-10-15T23:44:11.904Z,62.20
2023-10-15T23:46:41.421Z,61.90
2023-10-15T23:49:12.631Z,62.10
2023-10-15T23:51:41.881Z,61.60
2023-10-15T23:54:15.909Z,61.90
2023-10-15T23:56:45.843Z,61.40
2023-10-15T23:59:17.200Z,61.30
